Time;durP1;ratioP1;P1;durP2;ratioP2;P2;SDS_P1;SDS_P2;PMS_P1;PMS_P2;Temp;Humidity;BMP_temperature;BMP_pressure;BME280_temperature;BME280_humidity;BME280_pressure;Samples;Min_cycle;Max_cycle;Signal;HPM_P1;HPM_P2
2022/09/05 00:00:46;;;;;;;;;;;20.00;99.20;;;;;;4592242;19;20336;-24
2022/09/05 00:02:33;;;;;;;;;;;20.00;99.10;;;;;;4590974;19;19914;-22
2022/09/05 00:04:38;;;;;;;;;;;20.10;99.20;;;;;;4592200;19;19922;-23
2022/09/05 00:06:24;;;;;;;;;;;20.00;99.10;;;;;;4592206;19;19915;-26
2022/09/05 00:08:13;;;;;;;;;;;20.00;99.10;;;;;;4591042;19;20019;-24
2022/09/05 00:10:07;;;;;;;;;;;20.00;99.10;;;;;;4592009;19;19953;-23
2022/09/05 00:11:55;;;;;;;;;;;20.00;99.10;;;;;;4592202;19;19919;-26
2022/09/05 00:13:42;;;;;;;;;;;20.00;99.10;;;;;;4590722;19;19919;-25
2022/09/05 00:15:37;;;;;;;;;;;20.00;99.00;;;;;;4590756;19;19918;-25
2022/09/05 00:17:26;;;;;;;;;;;20.00;99.00;;;;;;4590630;19;19907;-25
2022/09/05 00:19:20;;;;;;;;;;;20.00;99.10;;;;;;4589847;19;19966;-25
2022/09/05 00:21:09;;;;;;;;;;;20.00;99.00;;;;;;4590565;19;19918;-23
2022/09/05 00:22:59;;;;;;;;;;;20.00;99.00;;;;;;4591839;19;20265;-25
2022/09/05 00:24:45;;;;;;;;;;;20.00;98.90;;;;;;4591010;19;19990;-26
2022/09/05 00:26:49;;;;;;;;;;;20.00;98.90;;;;;;4591911;19;19922;-24
2022/09/05 00:28:38;;;;;;;;;;;20.00;98.80;;;;;;4590316;19;19919;-25
2022/09/05 00:30:24;;;;;;;;;;;20.00;98.90;;;;;;4591604;19;19991;-26
2022/09/05 00:32:13;;;;;;;;;;;20.00;98.90;;;;;;4591513;19;19952;-25
2022/09/05 00:34:08;;;;;;;;;;;20.00;99.10;;;;;;4591377;19;19915;-24
2022/09/05 00:36:00;;;;;;;;;;;20.00;99.00;;;;;;4591458;19;19911;-22
2022/09/05 00:37:46;;;;;;;;;;;20.00;98.90;;;;;;4590944;19;19926;-25
2022/09/05 00:39:33;;;;;;;;;;;20.00;98.90;;;;;;4590178;19;19923;-25
2022/09/05 00:41:19;;;;;;;;;;;20.00;98.90;;;;;;4590459;19;19923;-25
2022/09/05 00:43:07;;;;;;;;;;;20.00;99.00;;;;;;4588528;19;20284;-26
2022/09/05 00:44:54;;;;;;;;;;;20.00;98.90;;;;;;4591241;19;19923;-25
2022/09/05 00:46:42;;;;;;;;;;;20.00;98.90;;;;;;4591112;19;19922;-22
2022/09/05 00:48:33;;;;;;;;;;;20.00;98.70;;;;;;4590044;19;19918;-23
2022/09/05 00:50:22;;;;;;;;;;;19.90;98.60;;;;;;4591293;19;19919;-22
2022/09/05 00:52:18;;;;;;;;;;;19.90;98.60;;;;;;4590042;19;19967;-23
2022/09/05 00:54:23;;;;;;;;;;;20.00;98.70;;;;;;4590147;19;19930;-27
2022/09/05 00:56:18;;;;;;;;;;;20.00;98.80;;;;;;4591262;19;19918;-24
2022/09/05 00:58:13;;;;;;;;;;;20.00;98.80;;;;;;4589819;19;19927;-22
2022/09/05 01:00:11;;;;;;;;;;;20.00;98.80;;;;;;4591234;19;19923;-25
2022/09/05 01:01:57;;;;;;;;;;;20.00;99.00;;;;;;4591200;19;19923;-25
2022/09/05 01:03:42;;;;;;;;;;;20.00;98.80;;;;;;4591178;19;20251;-24
2022/09/05 01:05:37;;;;;;;;;;;20.00;98.70;;;;;;4590806;19;19918;-23
2022/09/05 01:07:43;;;;;;;;;;;19.90;98.90;;;;;;4590875;19;19915;-24
2022/09/05 01:09:35;;;;;;;;;;;19.90;98.50;;;;;;4588496;19;20315;-23
2022/09/05 01:11:39;;;;;;;;;;;19.90;98.40;;;;;;4588828;19;19930;-22
2022/09/05 01:13:37;;;;;;;;;;;19.90;98.50;;;;;;4588437;19;19925;-24
2022/09/05 01:15:23;;;;;;;;;;;19.90;98.50;;;;;;4588640;19;19919;-24
2022/09/05 01:17:27;;;;;;;;;;;19.90;98.50;;;;;;4588595;19;19918;-23
2022/09/05 01:19:18;;;;;;;;;;;19.90;98.40;;;;;;4587755;19;19932;-24
2022/09/05 01:21:08;;;;;;;;;;;19.90;98.40;;;;;;4588510;19;19919;-27
2022/09/05 01:23:09;;;;;;;;;;;19.90;98.30;;;;;;4588686;19;19923;-25
2022/09/05 01:24:55;;;;;;;;;;;19.90;98.30;;;;;;4588837;19;19926;-24
2022/09/05 01:27:04;;;;;;;;;;;19.90;98.30;;;;;;4588667;19;19986;-25
2022/09/05 01:28:52;;;;;;;;;;;19.90;98.20;;;;;;4588365;19;19990;-24
2022/09/05 01:30:40;;;;;;;;;;;19.90;98.20;;;;;;4588127;19;19914;-23
2022/09/05 01:32:38;;;;;;;;;;;19.90;98.00;;;;;;4588100;19;20271;-24
2022/09/05 01:34:27;;;;;;;;;;;19.90;98.10;;;;;;4587992;19;19927;-24
2022/09/05 01:36:17;;;;;;;;;;;19.90;98.00;;;;;;4588157;19;19931;-24
2022/09/05 01:38:11;;;;;;;;;;;19.90;98.10;;;;;;4587105;19;19918;-25
2022/09/05 01:40:11;;;;;;;;;;;19.90;97.90;;;;;;4587805;19;19915;-26
2022/09/05 01:42:07;;;;;;;;;;;19.90;97.90;;;;;;4588100;19;19922;-24
2022/09/05 01:44:08;;;;;;;;;;;19.80;97.90;;;;;;4588147;19;19930;-23
2022/09/05 01:46:20;;;;;;;;;;;19.90;98.00;;;;;;4588117;19;19982;-25
2022/09/05 01:48:22;;;;;;;;;;;19.80;97.80;;;;;;4587928;19;19919;-26
2022/09/05 01:50:14;;;;;;;;;;;19.80;97.70;;;;;;4587596;19;19952;-26
2022/09/05 01:52:19;;;;;;;;;;;19.80;97.70;;;;;;4587853;19;20353;-23
2022/09/05 01:54:10;;;;;;;;;;;19.80;97.60;;;;;;4587785;19;19919;-24
2022/09/05 01:56:08;;;;;;;;;;;19.90;97.80;;;;;;4592808;19;19963;-24
2022/09/05 01:58:01;;;;;;;;;;;19.90;97.80;;;;;;4592478;19;19938;-24
2022/09/05 01:59:49;;;;;;;;;;;19.90;97.80;;;;;;4592231;19;20543;-21
2022/09/05 02:01:44;;;;;;;;;;;19.90;97.80;;;;;;4592349;19;20334;-23
2022/09/05 02:03:39;;;;;;;;;;;19.80;97.70;;;;;;4592446;19;20016;-25
2022/09/05 02:05:45;;;;;;;;;;;19.80;97.70;;;;;;4592254;19;19923;-25
2022/09/05 02:07:31;;;;;;;;;;;19.80;97.60;;;;;;4592248;19;19918;-23
2022/09/05 02:09:29;;;;;;;;;;;19.80;97.60;;;;;;4592419;19;20407;-22
2022/09/05 02:11:15;;;;;;;;;;;19.80;97.50;;;;;;4592490;19;19919;-26
2022/09/05 02:13:01;;;;;;;;;;;19.80;97.50;;;;;;4592348;19;19994;-24
2022/09/05 02:14:52;;;;;;;;;;;19.80;97.50;;;;;;4592501;19;19930;-24
2022/09/05 02:16:42;;;;;;;;;;;19.80;97.50;;;;;;4592486;19;19964;-26
2022/09/05 02:18:30;;;;;;;;;;;19.80;97.50;;;;;;4591906;19;19918;-24
2022/09/05 02:20:20;;;;;;;;;;;19.80;97.60;;;;;;4592090;19;19922;-25
2022/09/05 02:22:07;;;;;;;;;;;19.80;97.50;;;;;;4592138;19;19919;-24
2022/09/05 02:24:08;;;;;;;;;;;19.80;97.40;;;;;;4592200;19;19919;-23
2022/09/05 02:25:57;;;;;;;;;;;19.80;97.30;;;;;;4594131;19;19919;-25
2022/09/05 02:27:48;;;;;;;;;;;19.80;97.40;;;;;;4593716;19;19942;-24
2022/09/05 02:29:38;;;;;;;;;;;19.80;97.30;;;;;;4593034;19;19915;-23
2022/09/05 02:31:24;;;;;;;;;;;19.80;97.30;;;;;;4592974;19;19933;-24
2022/09/05 02:33:10;;;;;;;;;;;19.80;97.30;;;;;;4593943;19;20341;-23
2022/09/05 02:34:56;;;;;;;;;;;19.80;97.20;;;;;;4593898;19;20264;-24
2022/09/05 02:36:47;;;;;;;;;;;19.80;97.20;;;;;;4594042;19;20253;-23
2022/09/05 02:38:33;;;;;;;;;;;19.80;97.20;;;;;;4592363;19;19928;-26
2022/09/05 02:40:21;;;;;;;;;;;19.70;97.10;;;;;;4594273;19;19939;-21
2022/09/05 02:42:15;;;;;;;;;;;19.80;97.00;;;;;;4593973;19;19978;-24
2022/09/05 02:44:07;;;;;;;;;;;19.80;97.00;;;;;;4594047;19;19915;-26
2022/09/05 02:46:19;;;;;;;;;;;19.80;97.00;;;;;;4593999;19;20296;-24
2022/09/05 02:48:07;;;;;;;;;;;19.80;97.10;;;;;;4591569;19;19927;-22
2022/09/05 02:50:12;;;;;;;;;;;19.80;97.10;;;;;;4591625;19;19935;-24
2022/09/05 02:52:06;;;;;;;;;;;19.80;97.10;;;;;;4591479;19;19915;-23
2022/09/05 02:54:02;;;;;;;;;;;19.80;97.00;;;;;;4591307;19;20259;-26
2022/09/05 02:55:53;;;;;;;;;;;19.80;97.00;;;;;;4591516;19;19928;-25
2022/09/05 02:57:49;;;;;;;;;;;19.80;97.00;;;;;;4591270;19;19911;-26
2022/09/05 02:59:41;;;;;;;;;;;19.80;96.90;;;;;;4589724;19;19919;-23
2022/09/05 03:01:45;;;;;;;;;;;19.70;96.90;;;;;;4591486;19;20258;-22
2022/09/05 03:03:33;;;;;;;;;;;19.70;96.80;;;;;;4591309;19;19961;-23
2022/09/05 03:05:21;;;;;;;;;;;19.70;96.80;;;;;;4591311;19;19934;-24
2022/09/05 03:07:07;;;;;;;;;;;19.80;96.80;;;;;;4589825;19;19994;-23
2022/09/05 03:08:53;;;;;;;;;;;19.70;96.80;;;;;;4591462;19;19930;-24
2022/09/05 03:10:57;;;;;;;;;;;19.70;96.60;;;;;;4591036;19;20271;-23
2022/09/05 03:13:02;;;;;;;;;;;19.70;96.50;;;;;;4590882;19;20005;-25
2022/09/05 03:15:06;;;;;;;;;;;19.70;96.50;;;;;;4590944;19;20016;-23
2022/09/05 03:17:01;;;;;;;;;;;19.70;96.50;;;;;;4590900;19;19998;-24
2022/09/05 03:18:47;;;;;;;;;;;19.70;96.50;;;;;;4590329;19;19945;-23
2022/09/05 03:20:50;;;;;;;;;;;19.70;96.50;;;;;;4591123;19;19925;-24
2022/09/05 03:23:04;;;;;;;;;;;19.70;96.50;;;;;;4590861;19;20362;-22
2022/09/05 03:24:59;;;;;;;;;;;19.70;96.40;;;;;;4590898;19;19970;-29
2022/09/05 03:26:52;;;;;;;;;;;19.70;96.40;;;;;;4592965;19;20002;-24
2022/09/05 03:28:38;;;;;;;;;;;19.70;96.40;;;;;;4591337;19;19919;-24
2022/09/05 03:30:24;;;;;;;;;;;19.70;96.30;;;;;;4592952;19;19918;-22
2022/09/05 03:32:28;;;;;;;;;;;19.70;96.30;;;;;;4592745;19;20340;-22
2022/09/05 03:34:19;;;;;;;;;;;19.70;96.30;;;;;;4592857;19;19926;-25
2022/09/05 03:36:12;;;;;;;;;;;19.70;96.30;;;;;;4591931;19;19926;-26
2022/09/05 03:38:10;;;;;;;;;;;19.70;96.20;;;;;;4591066;19;19974;-25
2022/09/05 03:40:11;;;;;;;;;;;19.70;96.20;;;;;;4592908;19;19933;-23
2022/09/05 03:42:15;;;;;;;;;;;19.70;96.30;;;;;;4592591;19;19919;-22
2022/09/05 03:44:22;;;;;;;;;;;19.70;96.30;;;;;;4592550;19;19929;-23
2022/09/05 03:46:26;;;;;;;;;;;19.70;96.30;;;;;;4590211;19;19936;-24
2022/09/05 03:48:20;;;;;;;;;;;19.70;96.30;;;;;;4590590;19;20312;-24
2022/09/05 03:50:07;;;;;;;;;;;19.70;96.20;;;;;;4590303;19;19927;-24
2022/09/05 03:52:05;;;;;;;;;;;19.60;96.20;;;;;;4590291;19;19915;-22
2022/09/05 03:53:53;;;;;;;;;;;19.60;96.30;;;;;;4590364;19;19939;-24
2022/09/05 03:55:42;;;;;;;;;;;19.60;96.30;;;;;;4590371;19;19918;-26
2022/09/05 03:57:41;;;;;;;;;;;19.60;96.20;;;;;;4590061;19;19919;-24
2022/09/05 03:59:45;;;;;;;;;;;19.60;96.20;;;;;;4589341;19;19918;-23
2022/09/05 04:01:41;;;;;;;;;;;19.60;96.10;;;;;;4589953;19;20357;-23
2022/09/05 04:03:29;;;;;;;;;;;19.60;95.90;;;;;;4593168;19;19930;-28
2022/09/05 04:05:18;;;;;;;;;;;19.60;95.80;;;;;;4590279;19;19949;-21
2022/09/05 04:07:24;;;;;;;;;;;19.60;95.90;;;;;;4590666;19;19926;-24
2022/09/05 04:09:18;;;;;;;;;;;19.60;96.00;;;;;;4590491;19;19930;-24
2022/09/05 04:11:07;;;;;;;;;;;19.60;95.90;;;;;;4589796;19;19918;-23
2022/09/05 04:13:22;;;;;;;;;;;19.60;96.00;;;;;;4589996;19;19926;-24
2022/09/05 04:15:11;;;;;;;;;;;19.60;95.90;;;;;;4589371;19;20342;-22
2022/09/05 04:17:08;;;;;;;;;;;19.60;95.90;;;;;;4590058;19;19932;-24
2022/09/05 04:18:54;;;;;;;;;;;19.50;95.80;;;;;;4587510;19;19922;-25
2022/09/05 04:20:46;;;;;;;;;;;19.60;95.80;;;;;;4589794;19;19918;-22
2022/09/05 04:22:55;;;;;;;;;;;19.60;95.90;;;;;;4590083;19;19918;-21
2022/09/05 04:24:56;;;;;;;;;;;19.60;95.90;;;;;;4592044;19;19915;-26
2022/09/05 04:26:41;;;;;;;;;;;19.60;96.00;;;;;;4591516;19;20290;-24
2022/09/05 04:28:37;;;;;;;;;;;19.70;96.00;;;;;;4590073;19;20341;-23
2022/09/05 04:30:23;;;;;;;;;;;19.70;96.10;;;;;;4591960;19;20345;-24
2022/09/05 04:32:17;;;;;;;;;;;19.80;96.00;;;;;;4592310;19;19923;-23
2022/09/05 04:34:21;;;;;;;;;;;19.80;96.00;;;;;;4592493;19;19943;-24
2022/09/05 04:36:13;;;;;;;;;;;19.80;96.00;;;;;;4589449;19;20327;-22
2022/09/05 04:38:05;;;;;;;;;;;19.90;96.00;;;;;;4589144;19;19928;-24
2022/09/05 04:39:50;;;;;;;;;;;19.90;96.10;;;;;;4589133;19;19927;-22
2022/09/05 04:41:46;;;;;;;;;;;19.90;96.10;;;;;;4590973;19;19951;-23
2022/09/05 04:43:38;;;;;;;;;;;19.90;96.10;;;;;;4591236;19;20306;-23
2022/09/05 04:45:24;;;;;;;;;;;19.90;96.10;;;;;;4591762;19;19929;-25
2022/09/05 04:47:12;;;;;;;;;;;19.90;96.10;;;;;;4591971;19;19918;-24
2022/09/05 04:49:05;;;;;;;;;;;19.90;96.10;;;;;;4591361;19;19926;-24
2022/09/05 04:51:01;;;;;;;;;;;20.00;96.20;;;;;;4591491;19;20473;-23
2022/09/05 04:52:47;;;;;;;;;;;19.90;96.20;;;;;;4589929;19;19923;-26
2022/09/05 04:54:34;;;;;;;;;;;19.90;96.40;;;;;;4591379;19;20257;-26
2022/09/05 04:56:21;;;;;;;;;;;20.00;96.10;;;;;;4590309;19;19974;-24
2022/09/05 04:58:24;;;;;;;;;;;20.00;96.10;;;;;;4591551;19;19922;-26
2022/09/05 05:00:20;;;;;;;;;;;20.00;96.10;;;;;;4592227;19;19918;-26
2022/09/05 05:02:36;;;;;;;;;;;20.00;96.10;;;;;;4592999;19;19918;-21
2022/09/05 05:04:22;;;;;;;;;;;20.00;96.10;;;;;;4591714;19;19919;-23
2022/09/05 05:06:10;;;;;;;;;;;20.00;96.30;;;;;;4589123;19;19919;-24
2022/09/05 05:08:11;;;;;;;;;;;20.00;96.30;;;;;;4589268;19;19925;-23
2022/09/05 05:09:58;;;;;;;;;;;20.00;96.30;;;;;;4589674;19;20335;-22
2022/09/05 05:11:45;;;;;;;;;;;20.00;96.30;;;;;;4589984;19;19933;-26
2022/09/05 05:13:41;;;;;;;;;;;20.10;96.50;;;;;;4589664;19;19919;-24
2022/09/05 05:15:27;;;;;;;;;;;20.10;96.50;;;;;;4590150;19;19995;-25
2022/09/05 05:17:21;;;;;;;;;;;20.10;96.60;;;;;;4590332;19;19943;-23
2022/09/05 05:19:07;;;;;;;;;;;20.10;96.70;;;;;;4590223;19;19972;-21
2022/09/05 05:21:01;;;;;;;;;;;20.00;97.00;;;;;;4590883;19;19933;-23
2022/09/05 05:22:57;;;;;;;;;;;19.90;97.10;;;;;;4591302;19;20242;-22
2022/09/05 05:24:44;;;;;;;;;;;19.90;97.20;;;;;;4591466;19;19919;-24
2022/09/05 05:26:35;;;;;;;;;;;19.80;97.30;;;;;;4591325;19;19940;-22
2022/09/05 05:28:24;;;;;;;;;;;19.80;97.30;;;;;;4587730;19;19922;-22
2022/09/05 05:30:10;;;;;;;;;;;19.80;97.40;;;;;;4588073;19;19915;-25
2022/09/05 05:31:57;;;;;;;;;;;19.80;97.50;;;;;;4591118;19;20339;-25
2022/09/05 05:33:45;;;;;;;;;;;19.80;97.60;;;;;;4588889;19;19927;-22
2022/09/05 05:35:32;;;;;;;;;;;19.80;97.70;;;;;;4588858;19;19915;-22
2022/09/05 05:37:21;;;;;;;;;;;19.80;97.80;;;;;;4590464;19;19910;-22
2022/09/05 05:39:13;;;;;;;;;;;19.90;98.00;;;;;;4585794;19;20224;-24
2022/09/05 05:41:02;;;;;;;;;;;19.90;98.10;;;;;;4591747;19;19915;-23
2022/09/05 05:42:49;;;;;;;;;;;19.90;98.10;;;;;;4592298;19;19917;-22
2022/09/05 05:44:36;;;;;;;;;;;19.90;98.00;;;;;;4592219;19;20341;-21
2022/09/05 05:46:33;;;;;;;;;;;19.90;98.10;;;;;;4592412;19;19915;-23
2022/09/05 05:48:29;;;;;;;;;;;19.90;98.00;;;;;;4591808;19;20029;-22
2022/09/05 05:50:27;;;;;;;;;;;19.90;98.00;;;;;;4589566;19;19923;-23
2022/09/05 05:52:13;;;;;;;;;;;19.90;98.00;;;;;;4590528;19;19996;-24
2022/09/05 05:54:06;;;;;;;;;;;19.90;98.10;;;;;;4590492;19;19950;-20
2022/09/05 05:56:07;;;;;;;;;;;19.90;97.90;;;;;;4590960;19;19923;-22
2022/09/05 05:58:19;;;;;;;;;;;19.90;97.90;;;;;;4591999;19;19922;-21
2022/09/05 06:00:17;;;;;;;;;;;19.90;97.90;;;;;;4591109;19;19923;-24
2022/09/05 06:02:15;;;;;;;;;;;19.90;98.00;;;;;;4587873;19;20318;-25
2022/09/05 06:04:20;;;;;;;;;;;20.00;97.90;;;;;;4588508;19;19919;-24
2022/09/05 06:06:14;;;;;;;;;;;20.00;98.00;;;;;;4589124;19;19944;-26
2022/09/05 06:08:08;;;;;;;;;;;20.00;98.10;;;;;;4589266;19;20333;-24
2022/09/05 06:10:02;;;;;;;;;;;20.00;98.00;;;;;;4589360;19;19914;-22
2022/09/05 06:11:49;;;;;;;;;;;20.00;97.90;;;;;;4589856;19;19930;-25
2022/09/05 06:13:54;;;;;;;;;;;20.00;97.90;;;;;;4590149;19;19922;-25
2022/09/05 06:15:45;;;;;;;;;;;20.00;98.20;;;;;;4587376;19;19914;-22
2022/09/05 06:18:00;;;;;;;;;;;20.00;98.20;;;;;;4587693;19;19986;-24
2022/09/05 06:19:52;;;;;;;;;;;20.00;98.30;;;;;;4586144;19;19915;-27
2022/09/05 06:21:38;;;;;;;;;;;20.10;97.90;;;;;;4587447;19;19919;-24
2022/09/05 06:23:46;;;;;;;;;;;20.10;98.50;;;;;;4587212;19;20345;-24
2022/09/05 06:25:44;;;;;;;;;;;20.10;97.70;;;;;;4587162;19;19931;-24
2022/09/05 06:27:37;;;;;;;;;;;20.20;97.80;;;;;;4586841;19;20527;-23
2022/09/05 06:29:42;;;;;;;;;;;20.20;97.50;;;;;;4587345;19;20021;-23
2022/09/05 06:31:46;;;;;;;;;;;20.10;97.30;;;;;;4589036;19;19919;-26
2022/09/05 06:33:50;;;;;;;;;;;20.10;97.20;;;;;;4587216;19;20322;-25
2022/09/05 06:35:36;;;;;;;;;;;20.10;97.20;;;;;;4586885;19;19934;-25
2022/09/05 06:37:28;;;;;;;;;;;20.10;97.30;;;;;;4586993;19;19911;-24
2022/09/05 06:39:29;;;;;;;;;;;20.10;97.50;;;;;;4586942;19;20330;-24
2022/09/05 06:41:20;;;;;;;;;;;20.20;97.40;;;;;;4587564;19;19915;-25
2022/09/05 06:43:10;;;;;;;;;;;20.20;97.40;;;;;;4591261;19;20353;-25
2022/09/05 06:44:57;;;;;;;;;;;20.20;97.60;;;;;;4591337;19;19961;-25
2022/09/05 06:46:44;;;;;;;;;;;20.10;97.80;;;;;;4591284;19;19932;-23
2022/09/05 06:48:32;;;;;;;;;;;20.20;97.50;;;;;;4591446;19;19922;-24
2022/09/05 06:50:25;;;;;;;;;;;20.20;97.40;;;;;;4591105;19;20389;-24
2022/09/05 06:52:31;;;;;;;;;;;20.20;97.70;;;;;;4591133;19;20276;-22
2022/09/05 06:54:20;;;;;;;;;;;20.20;98.00;;;;;;4591395;19;19919;-24
2022/09/05 06:56:11;;;;;;;;;;;20.20;97.90;;;;;;4592185;19;19915;-23
2022/09/05 06:58:00;;;;;;;;;;;20.20;97.90;;;;;;4592408;19;19923;-24
2022/09/05 07:00:09;;;;;;;;;;;20.20;97.80;;;;;;4590957;19;19986;-25
2022/09/05 07:02:07;;;;;;;;;;;20.20;98.00;;;;;;4591891;19;19970;-22
2022/09/05 07:04:25;;;;;;;;;;;20.20;98.00;;;;;;4592048;19;19915;-23
2022/09/05 07:06:10;;;;;;;;;;;20.30;97.90;;;;;;4591124;19;19932;-23
2022/09/05 07:08:04;;;;;;;;;;;20.30;97.80;;;;;;4590977;19;19922;-25
2022/09/05 07:09:52;;;;;;;;;;;20.30;97.90;;;;;;4590798;19;20309;-23
2022/09/05 07:12:13;;;;;;;;;;;20.30;97.80;;;;;;4590970;19;19974;-25
2022/09/05 07:14:09;;;;;;;;;;;20.20;97.80;;;;;;4591171;19;20336;-25
2022/09/05 07:16:01;;;;;;;;;;;20.30;97.70;;;;;;4590958;19;19926;-23
2022/09/05 07:17:56;;;;;;;;;;;20.30;97.70;;;;;;4590815;19;20303;-26
2022/09/05 07:19:45;;;;;;;;;;;20.30;98.20;;;;;;4589482;19;20400;-27
2022/09/05 07:21:36;;;;;;;;;;;20.30;98.20;;;;;;4590983;19;19930;-24
2022/09/05 07:23:54;;;;;;;;;;;20.30;97.90;;;;;;4590866;19;20334;-24
2022/09/05 07:25:40;;;;;;;;;;;20.30;97.90;;;;;;4590405;19;19923;-27
2022/09/05 07:27:26;;;;;;;;;;;20.30;97.80;;;;;;4590564;19;19958;-24
2022/09/05 07:29:14;;;;;;;;;;;20.30;97.60;;;;;;4590670;19;20239;-25
2022/09/05 07:31:01;;;;;;;;;;;20.30;97.50;;;;;;4590627;19;19929;-25
2022/09/05 07:32:48;;;;;;;;;;;20.30;97.40;;;;;;4590241;19;20353;-22
2022/09/05 07:34:34;;;;;;;;;;;20.30;97.70;;;;;;4590157;19;19944;-25
2022/09/05 07:36:24;;;;;;;;;;;20.30;97.60;;;;;;4590213;19;19919;-23
2022/09/05 07:38:12;;;;;;;;;;;20.30;97.60;;;;;;4589082;19;19980;-24
2022/09/05 07:39:58;;;;;;;;;;;20.30;97.90;;;;;;4589211;19;20001;-25
2022/09/05 07:41:49;;;;;;;;;;;20.40;97.80;;;;;;4590296;19;19929;-26
2022/09/05 07:43:38;;;;;;;;;;;20.40;98.10;;;;;;4589835;19;19952;-22
2022/09/05 07:45:24;;;;;;;;;;;20.40;98.20;;;;;;4589871;19;19923;-24
2022/09/05 07:47:13;;;;;;;;;;;20.40;97.70;;;;;;4590011;19;19927;-24
2022/09/05 07:49:04;;;;;;;;;;;20.40;97.80;;;;;;4590030;19;19915;-23
2022/09/05 07:50:51;;;;;;;;;;;20.40;97.50;;;;;;4589793;19;19927;-24
2022/09/05 07:52:39;;;;;;;;;;;20.40;97.40;;;;;;4589237;19;19919;-25
2022/09/05 07:54:26;;;;;;;;;;;20.40;97.40;;;;;;4590374;19;19986;-23
2022/09/05 07:56:14;;;;;;;;;;;20.40;97.50;;;;;;4590090;19;20029;-24
2022/09/05 07:58:03;;;;;;;;;;;20.50;97.40;;;;;;4589492;19;20438;-22
2022/09/05 08:00:10;;;;;;;;;;;20.40;97.40;;;;;;4587573;19;19930;-25
2022/09/05 08:02:01;;;;;;;;;;;20.40;97.20;;;;;;4588679;19;19922;-23
2022/09/05 08:03:52;;;;;;;;;;;20.40;96.90;;;;;;4589356;19;19922;-23
2022/09/05 08:05:42;;;;;;;;;;;20.40;96.80;;;;;;4589545;19;19979;-28
2022/09/05 08:07:30;;;;;;;;;;;20.40;96.80;;;;;;4589077;19;19923;-25
2022/09/05 08:09:16;;;;;;;;;;;20.40;97.30;;;;;;4589615;19;19930;-25
2022/09/05 08:11:08;;;;;;;;;;;20.40;97.30;;;;;;4589817;19;19921;-25
2022/09/05 08:12:55;;;;;;;;;;;20.40;97.00;;;;;;4589460;19;19934;-22
2022/09/05 08:15:07;;;;;;;;;;;20.50;96.80;;;;;;4589626;19;19915;-24
2022/09/05 08:16:53;;;;;;;;;;;20.50;97.00;;;;;;4589474;19;19925;-23
2022/09/05 08:18:48;;;;;;;;;;;20.10;96.30;;;;;;4589033;19;19923;-25
2022/09/05 08:20:34;;;;;;;;;;;18.30;97.90;;;;;;4588870;19;19918;-22
2022/09/05 08:22:21;;;;;;;;;;;17.90;97.60;;;;;;4589212;19;19910;-24
2022/09/05 08:24:10;;;;;;;;;;;17.80;97.40;;;;;;4589204;19;19921;-24
2022/09/05 08:26:04;;;;;;;;;;;17.80;97.90;;;;;;4589452;19;19919;-23
2022/09/05 08:27:56;;;;;;;;;;;17.80;98.40;;;;;;4588819;19;19918;-23
2022/09/05 08:29:42;;;;;;;;;;;17.80;98.10;;;;;;4589727;19;19914;-25
2022/09/05 08:31:28;;;;;;;;;;;17.90;97.70;;;;;;4590260;19;19911;-22
2022/09/05 08:33:18;;;;;;;;;;;17.90;98.40;;;;;;4589051;19;20316;-25
2022/09/05 08:35:09;;;;;;;;;;;17.90;98.20;;;;;;4589185;19;20368;-22
2022/09/05 08:36:55;;;;;;;;;;;17.90;98.30;;;;;;4589168;19;20407;-23
2022/09/05 08:38:42;;;;;;;;;;;17.90;98.50;;;;;;4587847;19;20336;-22
2022/09/05 08:40:29;;;;;;;;;;;18.00;98.20;;;;;;4590374;19;19933;-24
2022/09/05 08:42:15;;;;;;;;;;;18.00;98.10;;;;;;4590376;19;19929;-25
2022/09/05 08:44:12;;;;;;;;;;;18.00;97.90;;;;;;4591217;19;19922;-24
2022/09/05 08:45:58;;;;;;;;;;;18.00;98.20;;;;;;4590209;19;19921;-25
2022/09/05 08:47:47;;;;;;;;;;;18.00;98.20;;;;;;4591033;19;19915;-25
2022/09/05 08:49:39;;;;;;;;;;;18.10;97.80;;;;;;4589793;19;19915;-22
2022/09/05 08:51:27;;;;;;;;;;;18.10;97.90;;;;;;4591045;19;20278;-25
2022/09/05 08:53:15;;;;;;;;;;;18.20;97.40;;;;;;4589776;19;19915;-25
2022/09/05 08:55:07;;;;;;;;;;;18.50;97.60;;;;;;4591323;19;19915;-28
2022/09/05 08:56:55;;;;;;;;;;;18.70;97.90;;;;;;4591328;19;20323;-22
2022/09/05 08:58:47;;;;;;;;;;;18.90;97.70;;;;;;4589707;19;19948;-26
2022/09/05 09:00:36;;;;;;;;;;;19.10;97.20;;;;;;4590672;19;19933;-26
2022/09/05 09:02:25;;;;;;;;;;;19.20;97.00;;;;;;4590808;19;19926;-22
2022/09/05 09:04:17;;;;;;;;;;;19.30;97.20;;;;;;4589397;19;19919;-22
2022/09/05 09:06:06;;;;;;;;;;;19.40;96.70;;;;;;4590724;19;20379;-25
2022/09/05 09:07:52;;;;;;;;;;;19.50;96.90;;;;;;4590772;19;20241;-26
2022/09/05 09:09:51;;;;;;;;;;;19.60;96.70;;;;;;4589787;19;20365;-24
2022/09/05 09:11:39;;;;;;;;;;;19.60;96.80;;;;;;4590005;19;19939;-24
2022/09/05 09:13:31;;;;;;;;;;;19.70;96.30;;;;;;4590765;19;19935;-22
2022/09/05 09:15:32;;;;;;;;;;;19.80;96.10;;;;;;4590011;19;19951;-24
2022/09/05 09:17:18;;;;;;;;;;;19.90;96.30;;;;;;4590645;19;19918;-27
2022/09/05 09:19:24;;;;;;;;;;;19.90;96.00;;;;;;4590216;19;19953;-25
2022/09/05 09:21:28;;;;;;;;;;;20.00;96.00;;;;;;4590614;19;19918;-23
2022/09/05 09:23:29;;;;;;;;;;;20.10;96.20;;;;;;4590540;19;19947;-26
2022/09/05 09:25:21;;;;;;;;;;;20.10;96.10;;;;;;4590586;19;19918;-27
2022/09/05 09:27:16;;;;;;;;;;;20.10;95.80;;;;;;4590520;19;19918;-23
2022/09/05 09:29:05;;;;;;;;;;;20.20;95.70;;;;;;4589456;19;19923;-25
2022/09/05 09:30:55;;;;;;;;;;;20.20;95.80;;;;;;4589521;19;19921;-24
2022/09/05 09:32:44;;;;;;;;;;;20.20;95.80;;;;;;4593192;19;20007;-26
2022/09/05 09:34:33;;;;;;;;;;;20.30;95.90;;;;;;4590557;19;19939;-26
2022/09/05 09:36:38;;;;;;;;;;;20.30;95.60;;;;;;4590660;19;20343;-21
2022/09/05 09:38:29;;;;;;;;;;;20.30;95.40;;;;;;4589730;19;20313;-24
2022/09/05 09:40:15;;;;;;;;;;;20.30;95.40;;;;;;4589900;19;19989;-24
2022/09/05 09:42:07;;;;;;;;;;;20.30;95.30;;;;;;4590211;19;19927;-22
2022/09/05 09:44:12;;;;;;;;;;;20.30;95.10;;;;;;4590113;19;19952;-23
2022/09/05 09:46:17;;;;;;;;;;;20.30;95.80;;;;;;4588952;19;19923;-27
2022/09/05 09:48:08;;;;;;;;;;;20.30;95.50;;;;;;4590007;19;19919;-24
2022/09/05 09:50:02;;;;;;;;;;;20.30;95.50;;;;;;4589968;19;19923;-23
2022/09/05 09:52:18;;;;;;;;;;;20.40;95.20;;;;;;4589145;19;20329;-23
2022/09/05 09:54:16;;;;;;;;;;;20.40;95.20;;;;;;4587873;19;19997;-26
2022/09/05 09:56:20;;;;;;;;;;;20.40;95.20;;;;;;4587557;19;19923;-24
2022/09/05 09:58:12;;;;;;;;;;;20.40;95.30;;;;;;4587527;19;19918;-25
2022/09/05 10:00:14;;;;;;;;;;;20.50;95.10;;;;;;4586744;19;19918;-23
2022/09/05 10:02:03;;;;;;;;;;;20.70;95.10;;;;;;4587649;19;20246;-25
2022/09/05 10:04:01;;;;;;;;;;;20.70;94.90;;;;;;4587157;19;20362;-24
2022/09/05 10:05:47;;;;;;;;;;;20.70;94.90;;;;;;4587770;19;19911;-22
2022/09/05 10:07:32;;;;;;;;;;;20.60;95.10;;;;;;4590178;19;19915;-27
2022/09/05 10:09:37;;;;;;;;;;;20.60;95.00;;;;;;4587704;19;19918;-24
2022/09/05 10:11:25;;;;;;;;;;;20.60;94.70;;;;;;4588159;19;20036;-23
2022/09/05 10:13:11;;;;;;;;;;;20.60;94.40;;;;;;4587990;19;19914;-23
2022/09/05 10:15:29;;;;;;;;;;;20.60;94.60;;;;;;4587554;19;20326;-23
2022/09/05 10:17:15;;;;;;;;;;;20.60;94.50;;;;;;4593354;19;19919;-25
2022/09/05 10:19:03;;;;;;;;;;;20.70;94.50;;;;;;4593016;19;19914;-22
2022/09/05 10:20:52;;;;;;;;;;;20.80;94.40;;;;;;4593642;19;19923;-22
2022/09/05 10:22:56;;;;;;;;;;;20.90;94.30;;;;;;4593967;19;20379;-22
2022/09/05 10:24:55;;;;;;;;;;;20.90;94.20;;;;;;4588259;19;20588;-25
2022/09/05 10:26:56;;;;;;;;;;;20.90;93.90;;;;;;4594357;19;20400;-23
2022/09/05 10:29:00;;;;;;;;;;;20.90;94.10;;;;;;4593051;19;19944;-23
2022/09/05 10:30:50;;;;;;;;;;;21.00;94.00;;;;;;4591793;19;20491;-26
2022/09/05 10:32:39;;;;;;;;;;;21.00;94.00;;;;;;4594056;19;19978;-27
2022/09/05 10:34:25;;;;;;;;;;;21.00;94.10;;;;;;4591775;19;19939;-23
2022/09/05 10:36:17;;;;;;;;;;;21.10;94.10;;;;;;4592047;19;20021;-22
2022/09/05 10:38:06;;;;;;;;;;;21.10;94.10;;;;;;4591654;19;19915;-28
2022/09/05 10:39:52;;;;;;;;;;;21.10;93.90;;;;;;4591252;19;19914;-22
2022/09/05 10:41:48;;;;;;;;;;;21.20;93.80;;;;;;4590219;19;20035;-24
2022/09/05 10:43:41;;;;;;;;;;;21.20;93.90;;;;;;4593081;19;19926;-26
2022/09/05 10:45:36;;;;;;;;;;;21.30;93.90;;;;;;4592668;19;19949;-25
2022/09/05 10:47:37;;;;;;;;;;;21.30;94.00;;;;;;4594558;19;19923;-25
2022/09/05 10:49:24;;;;;;;;;;;21.30;93.90;;;;;;4594432;19;20395;-22
2022/09/05 10:51:10;;;;;;;;;;;21.30;94.00;;;;;;4591021;19;20424;-28
2022/09/05 10:53:15;;;;;;;;;;;21.30;94.10;;;;;;4591653;19;19918;-23
2022/09/05 10:55:01;;;;;;;;;;;21.30;94.00;;;;;;4593848;19;19978;-23
2022/09/05 10:56:48;;;;;;;;;;;21.30;93.80;;;;;;4593517;19;19978;-24
2022/09/05 10:58:42;;;;;;;;;;;21.30;93.70;;;;;;4593904;19;19918;-22